createdAt,value
2022-12-16T00:01:53.951Z,7.03
2022-12-16T00:05:57.059Z,8.50
2022-12-16T00:09:59.161Z,7.00
2022-12-16T00:14:01.190Z,8.27
2022-12-16T00:18:03.249Z,6.30
2022-12-16T00:22:05.344Z,4.13
2022-12-16T00:26:08.425Z,7.57
2022-12-16T00:30:10.919Z,6.97
2022-12-16T00:34:13.022Z,4.65
2022-12-16T00:38:15.788Z,5.95
2022-12-16T00:42:17.998Z,7.20
2022-12-16T00:46:20.277Z,5.97
2022-12-16T00:50:22.583Z,4.38
2022-12-16T00:54:24.740Z,7.13
2022-12-16T00:58:27.665Z,5.72
2022-12-16T01:02:29.916Z,6.72
2022-12-16T01:06:32.212Z,5.40
2022-12-16T01:10:34.985Z,5.32
2022-12-16T01:14:37.636Z,7.72
2022-12-16T01:18:39.855Z,7.57
2022-12-16T01:22:42.096Z,3.63
2022-12-16T01:26:44.284Z,11.63
2022-12-16T01:30:46.461Z,4.82
2022-12-16T01:34:55.416Z,8.65
2022-12-16T01:38:57.835Z,4.47
2022-12-16T01:42:59.977Z,4.47
2022-12-16T01:47:06.037Z,6.22
2022-12-16T01:51:23.941Z,4.57
2022-12-16T01:55:32.640Z,6.05
2022-12-16T01:59:41.805Z,7.00
2022-12-16T02:03:44.781Z,3.15
2022-12-16T02:08:12.781Z,5.28
2022-12-16T02:12:28.624Z,12.13
2022-12-16T02:16:54.505Z,6.00
2022-12-16T02:21:02.992Z,7.68
2022-12-16T02:25:17.371Z,3.53
2022-12-16T02:29:37.630Z,4.43
2022-12-16T02:34:32.289Z,6.28
2022-12-16T02:38:46.291Z,6.03
2022-12-16T02:42:55.421Z,6.68
2022-12-16T02:46:57.577Z,4.43
2022-12-16T02:51:00.343Z,3.83
2022-12-16T02:55:06.539Z,7.80
2022-12-16T02:59:29.881Z,5.07
2022-12-16T03:03:45.231Z,4.80
2022-12-16T03:07:50.172Z,4.30
2022-12-16T03:11:55.096Z,3.47
2022-12-16T03:16:00.460Z,4.70
2022-12-16T03:20:47.449Z,3.85
2022-12-16T03:24:49.786Z,8.50
2022-12-16T03:29:09.308Z,5.28
2022-12-16T03:33:36.345Z,5.88
2022-12-16T03:37:39.172Z,4.28
2022-12-16T03:41:44.359Z,6.22
2022-12-16T03:52:49.637Z,4.97
2022-12-16T03:56:52.392Z,6.47
2022-12-16T04:00:54.555Z,3.78
2022-12-16T04:04:57.819Z,3.15
2022-12-16T04:09:00.229Z,2.22
2022-12-16T04:13:20.952Z,5.40
2022-12-16T04:17:41.474Z,8.63
2022-12-16T04:22:02.418Z,6.65
2022-12-16T04:26:05.269Z,5.10
2022-12-16T04:30:20.545Z,10.13
2022-12-16T04:34:25.943Z,6.43
2022-12-16T04:38:46.502Z,3.80
2022-12-16T04:43:06.996Z,2.97
2022-12-16T04:47:27.782Z,11.32
2022-12-16T04:51:48.559Z,7.78
2022-12-16T04:56:09.228Z,3.88
2022-12-16T05:00:31.003Z,4.35
2022-12-16T05:04:51.750Z,4.68
2022-12-16T05:09:12.469Z,5.85
2022-12-16T05:13:33.458Z,6.18
2022-12-16T05:17:54.452Z,5.13
2022-12-16T05:22:14.996Z,4.00
2022-12-16T05:26:36.080Z,1.20
2022-12-16T05:30:57.470Z,8.25
2022-12-16T05:35:18.144Z,4.03
2022-12-16T05:39:38.719Z,1.50
2022-12-16T05:43:59.274Z,5.95
2022-12-16T05:48:33.530Z,5.40
2022-12-16T05:52:54.111Z,2.40
2022-12-16T05:57:14.549Z,3.85
2022-12-16T06:01:35.322Z,4.35
2022-12-16T06:05:56.032Z,2.95
2022-12-16T06:10:17.025Z,5.05
2022-12-16T06:19:22.245Z,4.70
2022-12-16T06:23:42.893Z,3.05
2022-12-16T06:28:11.519Z,3.97
2022-12-16T06:32:43.411Z,2.92
2022-12-16T06:37:08.848Z,4.38
2022-12-16T06:41:29.402Z,5.18
2022-12-16T06:45:50.296Z,3.60
2022-12-16T06:50:11.131Z,7.32
2022-12-16T06:54:31.897Z,2.65
2022-12-16T06:58:52.641Z,6.10
2022-12-16T07:03:17.763Z,3.40
2022-12-16T07:07:39.105Z,1.73
2022-12-16T07:12:00.041Z,3.60
2022-12-16T07:16:20.995Z,1.40
2022-12-16T07:20:43.430Z,4.03
2022-12-16T07:25:04.205Z,3.78
2022-12-16T07:29:24.823Z,4.65
2022-12-16T07:33:45.336Z,4.90
2022-12-16T07:38:06.175Z,4.32
2022-12-16T07:42:26.918Z,5.38
2022-12-16T07:46:47.404Z,2.55
2022-12-16T07:51:08.376Z,2.70
2022-12-16T07:55:29.604Z,4.43
2022-12-16T07:59:51.202Z,2.95
2022-12-16T08:04:11.828Z,1.40
2022-12-16T08:08:32.816Z,4.88
2022-12-16T08:12:53.401Z,3.70
2022-12-16T08:17:14.504Z,1.70
2022-12-16T08:21:35.121Z,3.72
2022-12-16T08:25:55.970Z,4.43
2022-12-16T08:30:16.524Z,2.45
2022-12-16T08:34:37.300Z,2.67
2022-12-16T08:38:58.057Z,3.42
2022-12-16T08:43:18.789Z,4.53
2022-12-16T08:47:40.173Z,5.63
2022-12-16T08:52:00.728Z,2.00
2022-12-16T08:56:21.183Z,3.00
2022-12-16T09:00:41.692Z,2.53
2022-12-16T09:05:05.467Z,6.50
2022-12-16T09:09:27.000Z,4.93
2022-12-16T09:13:47.932Z,3.25
2022-12-16T09:18:15.529Z,2.42
2022-12-16T09:22:36.135Z,4.97
2022-12-16T09:26:56.946Z,2.67
2022-12-16T09:31:17.841Z,3.92
2022-12-16T09:35:41.133Z,2.50
2022-12-16T09:40:01.802Z,2.58
2022-12-16T09:44:42.323Z,4.93
2022-12-16T09:49:12.281Z,2.58
2022-12-16T09:53:41.651Z,3.22
2022-12-16T09:58:18.984Z,6.07
2022-12-16T10:02:42.057Z,4.10
2022-12-16T10:07:22.156Z,4.65
2022-12-16T10:12:00.937Z,5.35
2022-12-16T10:16:37.229Z,6.93
2022-12-16T10:21:13.430Z,6.15
2022-12-16T10:25:39.812Z,6.20
2022-12-16T10:30:03.479Z,4.88
2022-12-16T10:34:31.406Z,2.97
2022-12-16T10:39:05.461Z,2.17
2022-12-16T10:43:36.342Z,2.23
2022-12-16T10:48:29.395Z,7.05
2022-12-16T10:53:19.158Z,5.93
2022-12-16T10:57:42.821Z,3.78
2022-12-16T11:02:41.511Z,3.17
2022-12-16T11:07:03.321Z,4.40
2022-12-16T11:11:32.638Z,3.20
2022-12-16T11:15:53.504Z,2.40
2022-12-16T11:20:35.309Z,3.65
2022-12-16T11:24:56.141Z,4.13
2022-12-16T11:29:35.940Z,2.45
2022-12-16T11:34:12.848Z,4.35
2022-12-16T11:39:01.987Z,2.80
2022-12-16T11:43:25.124Z,4.75
2022-12-16T11:47:54.469Z,5.55
2022-12-16T11:52:36.799Z,5.63
2022-12-16T11:57:04.315Z,4.38
2022-12-16T12:01:38.844Z,6.47
2022-12-16T12:06:24.039Z,3.33
2022-12-16T12:11:06.304Z,2.88
2022-12-16T12:15:49.505Z,3.03
2022-12-16T12:20:38.044Z,4.15
2022-12-16T12:25:16.702Z,3.22
2022-12-16T12:30:16.349Z,3.08
2022-12-16T12:34:59.494Z,2.08
2022-12-16T12:39:36.967Z,3.45
2022-12-16T12:44:10.231Z,2.35
2022-12-16T12:48:57.452Z,1.80
2022-12-16T12:53:45.115Z,0.85
2022-12-16T12:58:09.166Z,6.30
2022-12-16T13:02:45.896Z,3.00
2022-12-16T13:07:07.186Z,1.98
2022-12-16T13:11:35.185Z,1.80
2022-12-16T13:15:58.272Z,0.40
2022-12-16T13:20:19.433Z,1.83
2022-12-16T13:24:58.818Z,2.20
2022-12-16T13:29:45.102Z,1.00
2022-12-16T13:34:10.673Z,2.70
2022-12-16T13:38:37.493Z,1.92
2022-12-16T13:43:01.975Z,0.98
2022-12-16T13:47:51.429Z,2.45
2022-12-16T13:52:19.268Z,2.30
2022-12-16T13:56:49.031Z,1.90
2022-12-16T14:01:24.416Z,0.98
2022-12-16T14:05:49.518Z,0.57
2022-12-16T14:10:12.150Z,2.15
2022-12-16T14:14:49.331Z,0.43
2022-12-16T14:19:31.326Z,0.90
2022-12-16T14:24:11.077Z,1.08
2022-12-16T14:28:57.345Z,1.15
2022-12-16T14:33:18.203Z,1.98
2022-12-16T14:37:56.548Z,0.50
2022-12-16T14:42:17.445Z,0.30
2022-12-16T14:46:48.803Z,2.10
2022-12-16T14:51:09.611Z,15.15
2022-12-16T14:55:46.923Z,1.00
2022-12-16T15:00:19.216Z,0.82
2022-12-16T15:04:41.233Z,2.30
2022-12-16T15:09:15.852Z,0.40
2022-12-16T15:13:37.471Z,1.67
2022-12-16T15:18:04.132Z,1.90
2022-12-16T15:22:24.986Z,2.63
2022-12-16T15:26:49.527Z,2.30
2022-12-16T15:31:10.231Z,3.58
2022-12-16T15:36:10.038Z,3.05
2022-12-16T15:40:40.140Z,2.40
2022-12-16T15:45:09.213Z,3.88
2022-12-16T15:49:58.031Z,3.92
2022-12-16T15:54:23.833Z,3.50
2022-12-16T15:58:55.386Z,3.83
2022-12-16T16:03:16.677Z,4.35
2022-12-16T16:07:41.746Z,4.32
2022-12-16T16:12:02.951Z,7.95
2022-12-16T16:16:24.242Z,4.72
2022-12-16T16:20:46.394Z,7.20
2022-12-16T16:25:07.260Z,24.60
2022-12-16T16:29:30.081Z,7.38
2022-12-16T16:33:50.804Z,120.13
2022-12-16T16:38:15.453Z,9.88
2022-12-16T16:42:40.066Z,9.75
2022-12-16T16:47:03.214Z,12.13
2022-12-16T16:56:18.123Z,8.23
2022-12-16T17:00:44.613Z,21.67
2022-12-16T17:05:07.764Z,12.23
2022-12-16T17:09:28.617Z,10.27
2022-12-16T17:13:49.440Z,11.18
2022-12-16T17:18:09.948Z,8.38
2022-12-16T17:22:30.478Z,11.60
2022-12-16T17:26:51.500Z,11.52
2022-12-16T17:31:12.634Z,10.30
2022-12-16T17:35:33.241Z,9.50
2022-12-16T17:39:54.303Z,12.70
2022-12-16T17:44:14.970Z,13.13
2022-12-16T17:48:35.651Z,14.02
2022-12-16T17:52:58.375Z,16.60
2022-12-16T17:57:19.141Z,26.58
2022-12-16T18:01:41.070Z,29.65
2022-12-16T18:06:01.815Z,25.55
2022-12-16T18:10:23.052Z,18.60
2022-12-16T18:14:45.143Z,15.82
2022-12-16T18:19:09.600Z,18.40
2022-12-16T18:23:31.825Z,17.90
2022-12-16T18:27:55.235Z,17.63
2022-12-16T18:32:19.996Z,14.13
2022-12-16T18:36:40.970Z,16.60
2022-12-16T18:41:01.767Z,14.50
2022-12-16T18:45:23.057Z,21.20
2022-12-16T18:49:44.279Z,21.23
2022-12-16T18:54:05.304Z,18.25
2022-12-16T18:58:50.332Z,18.10
2022-12-16T19:03:06.531Z,24.55
2022-12-16T19:07:27.250Z,19.85
2022-12-16T19:11:47.995Z,22.55
2022-12-16T19:16:16.022Z,21.63
2022-12-16T19:20:36.794Z,25.60
2022-12-16T19:24:57.614Z,26.13
2022-12-16T19:29:18.226Z,22.50
2022-12-16T19:33:38.942Z,25.45
2022-12-16T19:37:59.601Z,20.95
2022-12-16T19:42:20.418Z,19.23
2022-12-16T19:46:41.016Z,21.67
2022-12-16T19:51:01.880Z,20.38
2022-12-16T19:55:22.563Z,23.30
2022-12-16T19:59:43.050Z,20.30
2022-12-16T20:04:03.613Z,23.48
2022-12-16T20:08:24.148Z,19.02
2022-12-16T20:12:49.686Z,21.73
2022-12-16T20:17:12.874Z,30.65
2022-12-16T20:21:37.111Z,30.30
2022-12-16T20:25:57.752Z,28.92
2022-12-16T20:30:18.996Z,26.88
2022-12-16T20:34:40.111Z,29.42
2022-12-16T20:39:00.957Z,28.52
2022-12-16T20:43:21.808Z,27.73
2022-12-16T20:47:42.553Z,30.60
2022-12-16T20:52:03.286Z,28.08
2022-12-16T20:56:24.008Z,30.77
2022-12-16T21:00:44.634Z,31.08
2022-12-16T21:05:05.390Z,31.73
2022-12-16T21:09:26.167Z,36.63
2022-12-16T21:13:46.972Z,33.72
2022-12-16T21:18:08.589Z,36.55
2022-12-16T21:22:30.262Z,35.17
2022-12-16T21:26:51.833Z,29.73
2022-12-16T21:31:16.114Z,39.33
2022-12-16T21:35:38.006Z,38.65
2022-12-16T21:39:58.719Z,49.78
2022-12-16T21:44:20.017Z,34.00
2022-12-16T21:48:40.678Z,40.42
2022-12-16T21:53:01.242Z,48.60
2022-12-16T21:57:21.917Z,34.65
2022-12-16T22:01:42.536Z,46.60
2022-12-16T22:06:03.353Z,36.28
2022-12-16T22:10:24.672Z,36.65
2022-12-16T22:14:45.270Z,43.92
2022-12-16T22:19:05.918Z,42.83
2022-12-16T22:23:28.319Z,37.53
2022-12-16T22:27:49.237Z,37.35
2022-12-16T22:32:26.664Z,30.38
2022-12-16T22:36:54.203Z,34.50
2022-12-16T22:41:19.197Z,32.13
2022-12-16T22:45:41.429Z,27.85
2022-12-16T22:50:03.161Z,43.80
2022-12-16T22:54:24.629Z,30.38
2022-12-16T22:58:45.237Z,34.75
2022-12-16T23:03:05.845Z,29.15
2022-12-16T23:07:27.554Z,31.83
2022-12-16T23:11:56.591Z,36.25
2022-12-16T23:16:17.496Z,35.20
2022-12-16T23:20:38.097Z,40.05
2022-12-16T23:24:58.514Z,38.53
2022-12-16T23:29:19.123Z,40.53
2022-12-16T23:33:40.061Z,41.08
2022-12-16T23:38:01.041Z,44.05
2022-12-16T23:42:21.585Z,35.10
2022-12-16T23:46:42.614Z,43.65
2022-12-16T23:51:13.815Z,42.70
2022-12-16T23:55:35.473Z,40.83
2022-12-16T23:59:56.389Z,47.70
